sensor_id;sensor_type;location;lat;lon;timestamp;P1;durP1;ratioP1;P2;durP2;ratioP2
46230;SDS011;31949;51.404;-0.038;2024-03-07T00:00:43;17.65;;;12.02;;
46230;SDS011;31949;51.404;-0.038;2024-03-07T00:03:10;15.07;;;10.05;;
46230;SDS011;31949;51.404;-0.038;2024-03-07T00:05:38;17.48;;;11.73;;
46230;SDS011;31949;51.404;-0.038;2024-03-07T00:08:06;21.63;;;14.30;;
46230;SDS011;31949;51.404;-0.038;2024-03-07T00:10:34;19.88;;;13.60;;
46230;SDS011;31949;51.404;-0.038;2024-03-07T00:13:03;26.05;;;15.30;;
46230;SDS011;31949;51.404;-0.038;2024-03-07T00:15:30;23.52;;;15.00;;
46230;SDS011;31949;51.404;-0.038;2024-03-07T00:17:57;28.50;;;14.68;;
46230;SDS011;31949;51.404;-0.038;2024-03-07T00:20:26;28.65;;;16.95;;
46230;SDS011;31949;51.404;-0.038;2024-03-07T00:22:54;28.13;;;16.40;;
46230;SDS011;31949;51.404;-0.038;2024-03-07T00:25:21;30.73;;;18.67;;
46230;SDS011;31949;51.404;-0.038;2024-03-07T00:27:49;29.23;;;17.15;;
46230;SDS011;31949;51.404;-0.038;2024-03-07T00:30:19;29.35;;;16.45;;
46230;SDS011;31949;51.404;-0.038;2024-03-07T00:32:47;33.17;;;17.60;;
46230;SDS011;31949;51.404;-0.038;2024-03-07T00:35:15;35.50;;;19.52;;
46230;SDS011;31949;51.404;-0.038;2024-03-07T00:37:42;32.35;;;18.60;;
46230;SDS011;31949;51.404;-0.038;2024-03-07T00:40:10;33.45;;;18.55;;
46230;SDS011;31949;51.404;-0.038;2024-03-07T00:42:37;31.23;;;20.05;;
46230;SDS011;31949;51.404;-0.038;2024-03-07T00:45:05;37.67;;;21.83;;
46230;SDS011;31949;51.404;-0.038;2024-03-07T00:47:33;35.85;;;18.73;;
46230;SDS011;31949;51.404;-0.038;2024-03-07T00:50:00;32.92;;;19.02;;
46230;SDS011;31949;51.404;-0.038;2024-03-07T00:52:28;38.25;;;20.98;;
46230;SDS011;31949;51.404;-0.038;2024-03-07T00:54:55;43.78;;;19.25;;
46230;SDS011;31949;51.404;-0.038;2024-03-07T00:57:22;34.03;;;19.08;;
46230;SDS011;31949;51.404;-0.038;2024-03-07T00:59:50;41.35;;;23.13;;
46230;SDS011;31949;51.404;-0.038;2024-03-07T01:02:17;39.08;;;20.67;;
46230;SDS011;31949;51.404;-0.038;2024-03-07T01:04:45;43.03;;;23.20;;
46230;SDS011;31949;51.404;-0.038;2024-03-07T01:07:12;48.65;;;25.00;;
46230;SDS011;31949;51.404;-0.038;2024-03-07T01:09:39;49.88;;;26.92;;
46230;SDS011;31949;51.404;-0.038;2024-03-07T01:12:07;50.63;;;26.92;;
46230;SDS011;31949;51.404;-0.038;2024-03-07T01:14:37;47.67;;;26.25;;
46230;SDS011;31949;51.404;-0.038;2024-03-07T01:17:04;45.92;;;24.23;;
46230;SDS011;31949;51.404;-0.038;2024-03-07T01:19:34;47.67;;;26.75;;
46230;SDS011;31949;51.404;-0.038;2024-03-07T01:22:01;48.03;;;24.42;;
46230;SDS011;31949;51.404;-0.038;2024-03-07T01:24:29;48.17;;;26.08;;
46230;SDS011;31949;51.404;-0.038;2024-03-07T01:26:56;49.20;;;25.40;;
46230;SDS011;31949;51.404;-0.038;2024-03-07T01:29:23;48.53;;;24.38;;
46230;SDS011;31949;51.404;-0.038;2024-03-07T01:31:51;48.72;;;24.65;;
46230;SDS011;31949;51.404;-0.038;2024-03-07T01:34:18;52.45;;;27.55;;
46230;SDS011;31949;51.404;-0.038;2024-03-07T01:36:45;51.17;;;25.80;;
46230;SDS011;31949;51.404;-0.038;2024-03-07T01:39:12;49.08;;;24.13;;
46230;SDS011;31949;51.404;-0.038;2024-03-07T01:41:40;46.40;;;24.48;;
46230;SDS011;31949;51.404;-0.038;2024-03-07T01:44:07;52.50;;;28.50;;
46230;SDS011;31949;51.404;-0.038;2024-03-07T01:46:35;56.80;;;29.40;;
46230;SDS011;31949;51.404;-0.038;2024-03-07T01:49:02;56.05;;;28.88;;
46230;SDS011;31949;51.404;-0.038;2024-03-07T01:51:29;50.15;;;26.02;;
46230;SDS011;31949;51.404;-0.038;2024-03-07T01:53:57;55.08;;;27.33;;
46230;SDS011;31949;51.404;-0.038;2024-03-07T01:56:24;54.92;;;29.58;;
46230;SDS011;31949;51.404;-0.038;2024-03-07T01:58:52;61.38;;;28.42;;
46230;SDS011;31949;51.404;-0.038;2024-03-07T02:01:21;53.97;;;27.45;;
46230;SDS011;31949;51.404;-0.038;2024-03-07T02:03:49;53.42;;;27.70;;
46230;SDS011;31949;51.404;-0.038;2024-03-07T02:06:16;52.50;;;26.70;;
46230;SDS011;31949;51.404;-0.038;2024-03-07T02:08:43;51.20;;;26.23;;
46230;SDS011;31949;51.404;-0.038;2024-03-07T02:11:11;48.13;;;26.02;;
46230;SDS011;31949;51.404;-0.038;2024-03-07T02:13:40;52.60;;;26.42;;
46230;SDS011;31949;51.404;-0.038;2024-03-07T02:16:07;48.40;;;25.33;;
46230;SDS011;31949;51.404;-0.038;2024-03-07T02:18:35;49.20;;;26.17;;
46230;SDS011;31949;51.404;-0.038;2024-03-07T02:21:07;49.78;;;25.63;;
46230;SDS011;31949;51.404;-0.038;2024-03-07T02:23:35;54.83;;;26.98;;
46230;SDS011;31949;51.404;-0.038;2024-03-07T02:26:03;51.05;;;27.40;;
46230;SDS011;31949;51.404;-0.038;2024-03-07T02:28:30;60.22;;;29.55;;
46230;SDS011;31949;51.404;-0.038;2024-03-07T02:30:57;54.97;;;27.38;;
46230;SDS011;31949;51.404;-0.038;2024-03-07T02:33:25;54.25;;;27.20;;
46230;SDS011;31949;51.404;-0.038;2024-03-07T02:35:52;53.22;;;26.38;;
46230;SDS011;31949;51.404;-0.038;2024-03-07T02:38:20;50.63;;;28.25;;
46230;SDS011;31949;51.404;-0.038;2024-03-07T02:40:47;50.97;;;25.60;;
46230;SDS011;31949;51.404;-0.038;2024-03-07T02:43:14;49.67;;;25.95;;
46230;SDS011;31949;51.404;-0.038;2024-03-07T02:45:42;48.97;;;26.33;;
46230;SDS011;31949;51.404;-0.038;2024-03-07T02:48:09;56.55;;;28.27;;
46230;SDS011;31949;51.404;-0.038;2024-03-07T02:50:37;55.60;;;30.50;;
46230;SDS011;31949;51.404;-0.038;2024-03-07T02:53:05;54.50;;;28.05;;
46230;SDS011;31949;51.404;-0.038;2024-03-07T02:55:32;59.08;;;29.42;;
46230;SDS011;31949;51.404;-0.038;2024-03-07T02:57:59;56.72;;;29.33;;
46230;SDS011;31949;51.404;-0.038;2024-03-07T03:00:27;54.38;;;30.33;;
46230;SDS011;31949;51.404;-0.038;2024-03-07T03:02:56;51.75;;;26.35;;
46230;SDS011;31949;51.404;-0.038;2024-03-07T03:05:24;56.03;;;30.85;;
46230;SDS011;31949;51.404;-0.038;2024-03-07T03:07:52;56.13;;;28.67;;
46230;SDS011;31949;51.404;-0.038;2024-03-07T03:10:24;59.47;;;31.33;;
46230;SDS011;31949;51.404;-0.038;2024-03-07T03:13:00;56.50;;;28.92;;
46230;SDS011;31949;51.404;-0.038;2024-03-07T03:15:28;52.00;;;28.33;;
46230;SDS011;31949;51.404;-0.038;2024-03-07T03:17:57;52.92;;;29.45;;
46230;SDS011;31949;51.404;-0.038;2024-03-07T03:20:28;58.28;;;30.85;;
46230;SDS011;31949;51.404;-0.038;2024-03-07T03:23:02;55.10;;;29.83;;
46230;SDS011;31949;51.404;-0.038;2024-03-07T03:25:45;50.47;;;28.88;;
46230;SDS011;31949;51.404;-0.038;2024-03-07T03:28:16;56.80;;;29.30;;
46230;SDS011;31949;51.404;-0.038;2024-03-07T03:30:47;46.47;;;28.38;;
46230;SDS011;31949;51.404;-0.038;2024-03-07T03:33:14;53.10;;;28.48;;
46230;SDS011;31949;51.404;-0.038;2024-03-07T03:35:42;43.17;;;24.98;;
46230;SDS011;31949;51.404;-0.038;2024-03-07T03:38:10;41.53;;;25.88;;
46230;SDS011;31949;51.404;-0.038;2024-03-07T03:40:38;46.40;;;27.08;;
46230;SDS011;31949;51.404;-0.038;2024-03-07T03:43:05;49.42;;;29.35;;
46230;SDS011;31949;51.404;-0.038;2024-03-07T03:45:32;45.55;;;26.30;;
46230;SDS011;31949;51.404;-0.038;2024-03-07T03:48:02;39.60;;;24.67;;
46230;SDS011;31949;51.404;-0.038;2024-03-07T03:50:30;41.20;;;25.25;;
46230;SDS011;31949;51.404;-0.038;2024-03-07T03:52:58;48.50;;;28.70;;
46230;SDS011;31949;51.404;-0.038;2024-03-07T03:55:28;43.03;;;26.15;;
46230;SDS011;31949;51.404;-0.038;2024-03-07T03:57:55;42.40;;;25.35;;
46230;SDS011;31949;51.404;-0.038;2024-03-07T04:00:22;43.33;;;27.88;;
46230;SDS011;31949;51.404;-0.038;2024-03-07T04:02:50;45.58;;;26.48;;
46230;SDS011;31949;51.404;-0.038;2024-03-07T04:05:19;39.10;;;25.08;;
46230;SDS011;31949;51.404;-0.038;2024-03-07T04:07:47;42.75;;;26.10;;
46230;SDS011;31949;51.404;-0.038;2024-03-07T04:10:15;42.35;;;24.90;;
46230;SDS011;31949;51.404;-0.038;2024-03-07T04:12:46;43.70;;;27.03;;
46230;SDS011;31949;51.404;-0.038;2024-03-07T04:15:13;42.95;;;26.33;;
46230;SDS011;31949;51.404;-0.038;2024-03-07T04:20:15;39.58;;;23.20;;
46230;SDS011;31949;51.404;-0.038;2024-03-07T04:22:45;41.65;;;26.00;;
46230;SDS011;31949;51.404;-0.038;2024-03-07T04:25:13;43.80;;;25.65;;
46230;SDS011;31949;51.404;-0.038;2024-03-07T04:27:41;41.42;;;26.00;;
46230;SDS011;31949;51.404;-0.038;2024-03-07T04:30:09;41.38;;;26.38;;
46230;SDS011;31949;51.404;-0.038;2024-03-07T04:32:37;43.35;;;26.08;;
46230;SDS011;31949;51.404;-0.038;2024-03-07T04:35:05;40.53;;;23.08;;
46230;SDS011;31949;51.404;-0.038;2024-03-07T04:37:40;40.38;;;23.75;;
46230;SDS011;31949;51.404;-0.038;2024-03-07T04:40:08;42.60;;;26.40;;
46230;SDS011;31949;51.404;-0.038;2024-03-07T04:42:45;46.28;;;25.85;;
46230;SDS011;31949;51.404;-0.038;2024-03-07T04:45:14;50.42;;;29.77;;
46230;SDS011;31949;51.404;-0.038;2024-03-07T04:47:42;48.20;;;26.35;;
46230;SDS011;31949;51.404;-0.038;2024-03-07T04:50:11;43.65;;;25.20;;
46230;SDS011;31949;51.404;-0.038;2024-03-07T04:52:40;41.15;;;23.70;;
46230;SDS011;31949;51.404;-0.038;2024-03-07T04:55:08;45.50;;;26.23;;
46230;SDS011;31949;51.404;-0.038;2024-03-07T04:57:37;45.05;;;27.10;;
46230;SDS011;31949;51.404;-0.038;2024-03-07T05:00:07;49.00;;;26.67;;
46230;SDS011;31949;51.404;-0.038;2024-03-07T05:02:41;46.50;;;24.67;;
46230;SDS011;31949;51.404;-0.038;2024-03-07T05:05:09;43.55;;;24.83;;
46230;SDS011;31949;51.404;-0.038;2024-03-07T05:07:36;43.03;;;24.75;;
46230;SDS011;31949;51.404;-0.038;2024-03-07T05:10:04;45.97;;;24.77;;
46230;SDS011;31949;51.404;-0.038;2024-03-07T05:12:32;46.83;;;25.98;;
46230;SDS011;31949;51.404;-0.038;2024-03-07T05:15:00;46.92;;;24.38;;
46230;SDS011;31949;51.404;-0.038;2024-03-07T05:17:27;41.58;;;23.52;;
46230;SDS011;31949;51.404;-0.038;2024-03-07T05:19:55;44.97;;;24.35;;
46230;SDS011;31949;51.404;-0.038;2024-03-07T05:22:22;42.70;;;23.33;;
46230;SDS011;31949;51.404;-0.038;2024-03-07T05:24:52;46.13;;;25.13;;
46230;SDS011;31949;51.404;-0.038;2024-03-07T05:27:20;47.35;;;26.65;;
46230;SDS011;31949;51.404;-0.038;2024-03-07T05:29:47;46.15;;;25.20;;
46230;SDS011;31949;51.404;-0.038;2024-03-07T05:34:50;44.90;;;25.23;;
46230;SDS011;31949;51.404;-0.038;2024-03-07T05:37:17;47.03;;;26.80;;
46230;SDS011;31949;51.404;-0.038;2024-03-07T05:39:49;48.13;;;27.10;;
46230;SDS011;31949;51.404;-0.038;2024-03-07T05:42:17;48.20;;;24.75;;
46230;SDS011;31949;51.404;-0.038;2024-03-07T05:44:45;46.58;;;26.23;;
46230;SDS011;31949;51.404;-0.038;2024-03-07T05:47:13;42.45;;;25.70;;
46230;SDS011;31949;51.404;-0.038;2024-03-07T05:49:40;42.40;;;23.70;;
46230;SDS011;31949;51.404;-0.038;2024-03-07T05:52:07;43.45;;;24.65;;
46230;SDS011;31949;51.404;-0.038;2024-03-07T05:54:35;42.17;;;25.67;;
46230;SDS011;31949;51.404;-0.038;2024-03-07T05:57:02;37.05;;;22.63;;
46230;SDS011;31949;51.404;-0.038;2024-03-07T05:59:32;43.83;;;24.77;;
46230;SDS011;31949;51.404;-0.038;2024-03-07T06:01:59;46.47;;;25.83;;
46230;SDS011;31949;51.404;-0.038;2024-03-07T06:04:27;42.70;;;23.38;;
46230;SDS011;31949;51.404;-0.038;2024-03-07T06:06:56;39.10;;;23.73;;
46230;SDS011;31949;51.404;-0.038;2024-03-07T06:09:23;46.33;;;25.17;;
46230;SDS011;31949;51.404;-0.038;2024-03-07T06:11:50;45.13;;;26.45;;
46230;SDS011;31949;51.404;-0.038;2024-03-07T06:14:18;39.97;;;25.30;;
46230;SDS011;31949;51.404;-0.038;2024-03-07T06:16:46;40.45;;;25.33;;
46230;SDS011;31949;51.404;-0.038;2024-03-07T06:19:14;42.05;;;27.55;;
46230;SDS011;31949;51.404;-0.038;2024-03-07T06:21:41;38.72;;;24.40;;
46230;SDS011;31949;51.404;-0.038;2024-03-07T06:24:09;42.70;;;25.85;;
46230;SDS011;31949;51.404;-0.038;2024-03-07T06:26:38;40.92;;;24.38;;
46230;SDS011;31949;51.404;-0.038;2024-03-07T06:29:25;39.67;;;24.98;;
46230;SDS011;31949;51.404;-0.038;2024-03-07T06:31:55;43.53;;;25.60;;
46230;SDS011;31949;51.404;-0.038;2024-03-07T06:34:23;45.42;;;28.40;;
46230;SDS011;31949;51.404;-0.038;2024-03-07T06:36:50;43.47;;;27.90;;
46230;SDS011;31949;51.404;-0.038;2024-03-07T06:39:17;38.47;;;26.38;;
46230;SDS011;31949;51.404;-0.038;2024-03-07T06:41:48;41.45;;;25.60;;
46230;SDS011;31949;51.404;-0.038;2024-03-07T06:44:16;41.85;;;25.73;;
46230;SDS011;31949;51.404;-0.038;2024-03-07T06:46:50;44.10;;;29.13;;
46230;SDS011;31949;51.404;-0.038;2024-03-07T06:49:17;47.42;;;30.20;;
46230;SDS011;31949;51.404;-0.038;2024-03-07T06:51:44;44.22;;;28.75;;
46230;SDS011;31949;51.404;-0.038;2024-03-07T06:54:12;47.33;;;29.10;;
46230;SDS011;31949;51.404;-0.038;2024-03-07T06:56:39;49.25;;;30.48;;
46230;SDS011;31949;51.404;-0.038;2024-03-07T06:59:10;48.60;;;29.02;;
46230;SDS011;31949;51.404;-0.038;2024-03-07T07:01:37;47.72;;;29.25;;
46230;SDS011;31949;51.404;-0.038;2024-03-07T07:04:09;48.97;;;31.05;;
46230;SDS011;31949;51.404;-0.038;2024-03-07T07:06:39;53.85;;;32.45;;
46230;SDS011;31949;51.404;-0.038;2024-03-07T07:09:09;47.60;;;28.50;;
46230;SDS011;31949;51.404;-0.038;2024-03-07T07:11:37;46.65;;;28.70;;
46230;SDS011;31949;51.404;-0.038;2024-03-07T07:14:04;50.42;;;30.55;;
46230;SDS011;31949;51.404;-0.038;2024-03-07T07:16:31;46.38;;;28.33;;
46230;SDS011;31949;51.404;-0.038;2024-03-07T07:19:02;57.60;;;33.28;;
46230;SDS011;31949;51.404;-0.038;2024-03-07T07:21:29;51.08;;;31.23;;
46230;SDS011;31949;51.404;-0.038;2024-03-07T07:23:56;53.70;;;31.80;;
46230;SDS011;31949;51.404;-0.038;2024-03-07T07:26:24;48.72;;;30.17;;
46230;SDS011;31949;51.404;-0.038;2024-03-07T07:28:52;51.70;;;31.85;;
46230;SDS011;31949;51.404;-0.038;2024-03-07T07:31:20;56.28;;;33.55;;
46230;SDS011;31949;51.404;-0.038;2024-03-07T07:33:48;61.08;;;36.55;;
46230;SDS011;31949;51.404;-0.038;2024-03-07T07:36:16;50.58;;;30.75;;
46230;SDS011;31949;51.404;-0.038;2024-03-07T07:38:43;58.25;;;37.40;;
46230;SDS011;31949;51.404;-0.038;2024-03-07T07:41:11;59.20;;;33.33;;
46230;SDS011;31949;51.404;-0.038;2024-03-07T07:43:39;60.33;;;35.50;;
46230;SDS011;31949;51.404;-0.038;2024-03-07T07:46:09;57.30;;;36.78;;
46230;SDS011;31949;51.404;-0.038;2024-03-07T07:48:37;66.10;;;39.78;;
46230;SDS011;31949;51.404;-0.038;2024-03-07T07:51:05;55.50;;;33.90;;
46230;SDS011;31949;51.404;-0.038;2024-03-07T07:53:34;53.15;;;33.08;;
46230;SDS011;31949;51.404;-0.038;2024-03-07T07:56:01;56.58;;;35.55;;
46230;SDS011;31949;51.404;-0.038;2024-03-07T07:58:28;56.75;;;33.78;;
46230;SDS011;31949;51.404;-0.038;2024-03-07T08:00:55;56.03;;;34.35;;
46230;SDS011;31949;51.404;-0.038;2024-03-07T08:03:24;58.60;;;35.15;;
46230;SDS011;31949;51.404;-0.038;2024-03-07T08:05:51;60.25;;;37.83;;
46230;SDS011;31949;51.404;-0.038;2024-03-07T08:08:18;59.58;;;35.20;;
46230;SDS011;31949;51.404;-0.038;2024-03-07T08:10:47;58.85;;;35.20;;
46230;SDS011;31949;51.404;-0.038;2024-03-07T08:13:15;57.33;;;34.90;;
46230;SDS011;31949;51.404;-0.038;2024-03-07T08:15:42;57.58;;;33.20;;
46230;SDS011;31949;51.404;-0.038;2024-03-07T08:18:10;53.70;;;34.22;;
46230;SDS011;31949;51.404;-0.038;2024-03-07T08:20:39;57.53;;;35.35;;
46230;SDS011;31949;51.404;-0.038;2024-03-07T08:23:08;53.78;;;35.58;;
46230;SDS011;31949;51.404;-0.038;2024-03-07T08:25:37;57.13;;;35.03;;
46230;SDS011;31949;51.404;-0.038;2024-03-07T08:28:07;57.10;;;36.03;;
46230;SDS011;31949;51.404;-0.038;2024-03-07T08:30:35;58.88;;;35.17;;
46230;SDS011;31949;51.404;-0.038;2024-03-07T08:33:02;61.00;;;38.33;;
46230;SDS011;31949;51.404;-0.038;2024-03-07T08:35:33;56.53;;;36.05;;
46230;SDS011;31949;51.404;-0.038;2024-03-07T08:38:01;58.83;;;37.03;;
46230;SDS011;31949;51.404;-0.038;2024-03-07T08:40:29;68.30;;;40.08;;
46230;SDS011;31949;51.404;-0.038;2024-03-07T08:43:01;63.67;;;38.90;;
46230;SDS011;31949;51.404;-0.038;2024-03-07T08:45:34;59.47;;;37.90;;
46230;SDS011;31949;51.404;-0.038;2024-03-07T08:48:02;56.45;;;34.78;;
46230;SDS011;31949;51.404;-0.038;2024-03-07T08:50:37;63.85;;;41.92;;
46230;SDS011;31949;51.404;-0.038;2024-03-07T08:53:06;62.00;;;39.95;;
46230;SDS011;31949;51.404;-0.038;2024-03-07T08:55:34;65.57;;;40.30;;
46230;SDS011;31949;51.404;-0.038;2024-03-07T08:58:03;61.80;;;38.00;;
46230;SDS011;31949;51.404;-0.038;2024-03-07T09:00:33;59.67;;;37.53;;
46230;SDS011;31949;51.404;-0.038;2024-03-07T09:03:05;52.45;;;36.20;;
46230;SDS011;31949;51.404;-0.038;2024-03-07T09:05:38;62.42;;;39.42;;
46230;SDS011;31949;51.404;-0.038;2024-03-07T09:08:05;62.00;;;39.45;;
46230;SDS011;31949;51.404;-0.038;2024-03-07T09:10:34;62.20;;;38.95;;
46230;SDS011;31949;51.404;-0.038;2024-03-07T09:13:01;62.80;;;40.08;;
46230;SDS011;31949;51.404;-0.038;2024-03-07T09:15:29;64.43;;;41.70;;
46230;SDS011;31949;51.404;-0.038;2024-03-07T09:17:56;63.08;;;38.35;;
46230;SDS011;31949;51.404;-0.038;2024-03-07T09:20:25;56.28;;;35.15;;
46230;SDS011;31949;51.404;-0.038;2024-03-07T09:22:53;63.40;;;38.67;;
46230;SDS011;31949;51.404;-0.038;2024-03-07T09:25:22;55.92;;;35.58;;
46230;SDS011;31949;51.404;-0.038;2024-03-07T09:27:52;64.38;;;38.15;;
46230;SDS011;31949;51.404;-0.038;2024-03-07T09:30:21;57.58;;;36.58;;
46230;SDS011;31949;51.404;-0.038;2024-03-07T09:32:53;54.90;;;36.33;;
46230;SDS011;31949;51.404;-0.038;2024-03-07T09:35:22;54.45;;;36.60;;
46230;SDS011;31949;51.404;-0.038;2024-03-07T09:37:49;51.78;;;35.17;;
46230;SDS011;31949;51.404;-0.038;2024-03-07T09:40:17;58.25;;;37.45;;
46230;SDS011;31949;51.404;-0.038;2024-03-07T09:42:48;60.28;;;40.40;;
46230;SDS011;31949;51.404;-0.038;2024-03-07T09:45:19;58.13;;;37.90;;
46230;SDS011;31949;51.404;-0.038;2024-03-07T09:47:50;57.58;;;36.90;;
46230;SDS011;31949;51.404;-0.038;2024-03-07T09:50:20;58.83;;;37.33;;
46230;SDS011;31949;51.404;-0.038;2024-03-07T09:52:54;54.95;;;35.88;;
46230;SDS011;31949;51.404;-0.038;2024-03-07T09:55:23;63.63;;;40.47;;
46230;SDS011;31949;51.404;-0.038;2024-03-07T09:57:54;61.75;;;40.00;;
46230;SDS011;31949;51.404;-0.038;2024-03-07T10:00:24;60.17;;;37.97;;
46230;SDS011;31949;51.404;-0.038;2024-03-07T10:02:59;57.72;;;39.50;;
46230;SDS011;31949;51.404;-0.038;2024-03-07T10:05:30;65.65;;;43.13;;
46230;SDS011;31949;51.404;-0.038;2024-03-07T10:08:00;65.03;;;41.63;;
46230;SDS011;31949;51.404;-0.038;2024-03-07T10:10:28;64.55;;;41.90;;
46230;SDS011;31949;51.404;-0.038;2024-03-07T10:12:57;59.58;;;39.58;;
46230;SDS011;31949;51.404;-0.038;2024-03-07T10:15:29;64.93;;;42.22;;
46230;SDS011;31949;51.404;-0.038;2024-03-07T10:17:57;74.05;;;47.67;;
46230;SDS011;31949;51.404;-0.038;2024-03-07T10:20:27;68.78;;;45.78;;
46230;SDS011;31949;51.404;-0.038;2024-03-07T10:22:55;69.70;;;43.85;;
46230;SDS011;31949;51.404;-0.038;2024-03-07T10:25:23;69.03;;;45.20;;
46230;SDS011;31949;51.404;-0.038;2024-03-07T10:27:53;81.78;;;52.47;;
46230;SDS011;31949;51.404;-0.038;2024-03-07T10:30:21;83.20;;;50.78;;
46230;SDS011;31949;51.404;-0.038;2024-03-07T10:32:54;76.20;;;47.83;;
46230;SDS011;31949;51.404;-0.038;2024-03-07T10:35:28;79.35;;;49.88;;
46230;SDS011;31949;51.404;-0.038;2024-03-07T10:37:57;82.07;;;51.40;;
46230;SDS011;31949;51.404;-0.038;2024-03-07T10:40:28;83.22;;;50.08;;
46230;SDS011;31949;51.404;-0.038;2024-03-07T10:42:57;79.13;;;48.65;;
46230;SDS011;31949;51.404;-0.038;2024-03-07T10:45:30;82.10;;;52.13;;
46230;SDS011;31949;51.404;-0.038;2024-03-07T10:48:01;79.20;;;50.17;;
46230;SDS011;31949;51.404;-0.038;2024-03-07T10:53:35;73.45;;;49.47;;
46230;SDS011;31949;51.404;-0.038;2024-03-07T10:59:11;77.35;;;47.90;;
46230;SDS011;31949;51.404;-0.038;2024-03-07T11:01:49;80.45;;;51.50;;
46230;SDS011;31949;51.404;-0.038;2024-03-07T11:04:22;83.40;;;52.50;;
46230;SDS011;31949;51.404;-0.038;2024-03-07T11:06:49;79.43;;;50.78;;
46230;SDS011;31949;51.404;-0.038;2024-03-07T11:09:16;73.95;;;47.60;;
46230;SDS011;31949;51.404;-0.038;2024-03-07T11:12:05;69.72;;;47.03;;
46230;SDS011;31949;51.404;-0.038;2024-03-07T11:14:34;76.07;;;48.50;;
46230;SDS011;31949;51.404;-0.038;2024-03-07T11:17:04;67.97;;;46.70;;
46230;SDS011;31949;51.404;-0.038;2024-03-07T11:19:33;74.10;;;47.88;;
46230;SDS011;31949;51.404;-0.038;2024-03-07T11:22:04;70.45;;;45.13;;
46230;SDS011;31949;51.404;-0.038;2024-03-07T11:24:44;69.78;;;46.13;;
46230;SDS011;31949;51.404;-0.038;2024-03-07T11:27:26;61.35;;;43.25;;
46230;SDS011;31949;51.404;-0.038;2024-03-07T11:29:53;67.72;;;45.83;;
46230;SDS011;31949;51.404;-0.038;2024-03-07T11:32:21;58.08;;;39.95;;
46230;SDS011;31949;51.404;-0.038;2024-03-07T11:34:50;72.55;;;41.72;;
46230;SDS011;31949;51.404;-0.038;2024-03-07T11:37:36;52.75;;;36.58;;
46230;SDS011;31949;51.404;-0.038;2024-03-07T11:42:47;59.38;;;38.33;;
46230;SDS011;31949;51.404;-0.038;2024-03-07T11:45:15;50.22;;;33.88;;
46230;SDS011;31949;51.404;-0.038;2024-03-07T11:47:55;54.38;;;36.20;;
46230;SDS011;31949;51.404;-0.038;2024-03-07T11:53:08;52.45;;;33.70;;
46230;SDS011;31949;51.404;-0.038;2024-03-07T11:55:37;49.35;;;31.70;;
46230;SDS011;31949;51.404;-0.038;2024-03-07T11:58:18;50.53;;;35.03;;
46230;SDS011;31949;51.404;-0.038;2024-03-07T12:00:52;52.03;;;35.60;;
46230;SDS011;31949;51.404;-0.038;2024-03-07T12:03:20;54.38;;;36.08;;
46230;SDS011;31949;51.404;-0.038;2024-03-07T12:05:49;51.58;;;34.78;;
46230;SDS011;31949;51.404;-0.038;2024-03-07T12:08:19;46.97;;;32.40;;
46230;SDS011;31949;51.404;-0.038;2024-03-07T12:10:51;53.85;;;32.72;;
46230;SDS011;31949;51.404;-0.038;2024-03-07T12:13:24;56.65;;;34.30;;
46230;SDS011;31949;51.404;-0.038;2024-03-07T12:15:53;43.47;;;30.40;;
46230;SDS011;31949;51.404;-0.038;2024-03-07T12:18:22;49.40;;;31.05;;
46230;SDS011;31949;51.404;-0.038;2024-03-07T12:20:51;45.70;;;31.42;;
46230;SDS011;31949;51.404;-0.038;2024-03-07T12:23:23;48.50;;;31.33;;
46230;SDS011;31949;51.404;-0.038;2024-03-07T12:26:00;46.60;;;30.58;;
46230;SDS011;31949;51.404;-0.038;2024-03-07T12:28:29;42.83;;;28.52;;
46230;SDS011;31949;51.404;-0.038;2024-03-07T12:31:01;40.90;;;25.42;;
46230;SDS011;31949;51.404;-0.038;2024-03-07T12:33:30;36.83;;;25.90;;
46230;SDS011;31949;51.404;-0.038;2024-03-07T12:36:01;32.67;;;23.52;;
46230;SDS011;31949;51.404;-0.038;2024-03-07T12:38:37;40.20;;;25.42;;
46230;SDS011;31949;51.404;-0.038;2024-03-07T12:41:09;36.05;;;24.05;;
46230;SDS011;31949;51.404;-0.038;2024-03-07T12:43:42;33.03;;;22.02;;
46230;SDS011;31949;51.404;-0.038;2024-03-07T12:46:11;33.45;;;21.75;;
46230;SDS011;31949;51.404;-0.038;2024-03-07T12:48:40;30.17;;;20.58;;
46230;SDS011;31949;51.404;-0.038;2024-03-07T12:51:09;32.53;;;22.70;;
46230;SDS011;31949;51.404;-0.038;2024-03-07T12:53:36;29.60;;;18.65;;
46230;SDS011;31949;51.404;-0.038;2024-03-07T12:56:04;26.63;;;19.02;;
46230;SDS011;31949;51.404;-0.038;2024-03-07T12:58:31;27.52;;;17.20;;
46230;SDS011;31949;51.404;-0.038;2024-03-07T13:00:59;30.13;;;17.60;;
46230;SDS011;31949;51.404;-0.038;2024-03-07T13:03:27;23.33;;;15.52;;
46230;SDS011;31949;51.404;-0.038;2024-03-07T13:05:58;23.17;;;14.40;;
46230;SDS011;31949;51.404;-0.038;2024-03-07T13:08:28;26.08;;;15.85;;
46230;SDS011;31949;51.404;-0.038;2024-03-07T13:10:57;24.17;;;15.23;;
46230;SDS011;31949;51.404;-0.038;2024-03-07T13:13:28;23.00;;;14.55;;
46230;SDS011;31949;51.404;-0.038;2024-03-07T13:15:55;21.48;;;14.73;;
46230;SDS011;31949;51.404;-0.038;2024-03-07T13:18:25;23.30;;;15.65;;
46230;SDS011;31949;51.404;-0.038;2024-03-07T13:20:52;27.30;;;16.83;;
46230;SDS011;31949;51.404;-0.038;2024-03-07T13:23:20;27.35;;;17.70;;
46230;SDS011;31949;51.404;-0.038;2024-03-07T13:25:47;28.30;;;18.40;;
46230;SDS011;31949;51.404;-0.038;2024-03-07T13:28:15;26.13;;;19.50;;
46230;SDS011;31949;51.404;-0.038;2024-03-07T13:30:45;33.75;;;20.52;;
46230;SDS011;31949;51.404;-0.038;2024-03-07T13:33:16;25.33;;;17.20;;
46230;SDS011;31949;51.404;-0.038;2024-03-07T13:35:44;24.98;;;17.35;;
46230;SDS011;31949;51.404;-0.038;2024-03-07T13:38:11;27.25;;;18.45;;
46230;SDS011;31949;51.404;-0.038;2024-03-07T13:40:39;29.75;;;19.67;;
46230;SDS011;31949;51.404;-0.038;2024-03-07T13:43:07;29.63;;;18.13;;
46230;SDS011;31949;51.404;-0.038;2024-03-07T13:45:35;31.58;;;20.10;;
46230;SDS011;31949;51.404;-0.038;2024-03-07T13:50:36;32.17;;;20.05;;
46230;SDS011;31949;51.404;-0.038;2024-03-07T13:53:29;30.17;;;18.38;;
46230;SDS011;31949;51.404;-0.038;2024-03-07T14:13:42;33.95;;;22.23;;
46230;SDS011;31949;51.404;-0.038;2024-03-07T14:27:50;39.28;;;27.00;;
46230;SDS011;31949;51.404;-0.038;2024-03-07T14:30:41;45.40;;;29.95;;
46230;SDS011;31949;51.404;-0.038;2024-03-07T14:33:17;44.95;;;28.70;;
46230;SDS011;31949;51.404;-0.038;2024-03-07T14:39:11;45.60;;;30.40;;
46230;SDS011;31949;51.404;-0.038;2024-03-07T14:41:48;42.28;;;27.88;;
46230;SDS011;31949;51.404;-0.038;2024-03-07T14:44:17;50.53;;;33.28;;
46230;SDS011;31949;51.404;-0.038;2024-03-07T14:46:47;47.33;;;30.73;;
46230;SDS011;31949;51.404;-0.038;2024-03-07T14:49:19;47.15;;;31.83;;
46230;SDS011;31949;51.404;-0.038;2024-03-07T14:51:47;46.22;;;31.52;;
46230;SDS011;31949;51.404;-0.038;2024-03-07T14:54:26;50.00;;;32.45;;
46230;SDS011;31949;51.404;-0.038;2024-03-07T14:56:53;48.53;;;30.60;;
46230;SDS011;31949;51.404;-0.038;2024-03-07T14:59:22;48.40;;;33.40;;
46230;SDS011;31949;51.404;-0.038;2024-03-07T15:01:49;45.13;;;30.85;;
46230;SDS011;31949;51.404;-0.038;2024-03-07T15:04:17;45.28;;;30.10;;
46230;SDS011;31949;51.404;-0.038;2024-03-07T15:06:45;43.17;;;27.85;;
46230;SDS011;31949;51.404;-0.038;2024-03-07T15:09:12;44.90;;;31.85;;
46230;SDS011;31949;51.404;-0.038;2024-03-07T15:11:40;46.60;;;31.08;;